METAR Data

Data at: 1213 UTC 24 May 2022

METAR for:KIJD (Willimantic/Windhan, CT, US)
Text:KIJD 241152Z AUTO 06010KT 10SM CLR 14/04 A3032 RMK AO2 SLP266 60000 T01390044 10144 20122 53012 TSNO
Temperature: 13.9°C ( 57°F)
Dewpoint: 4.4°C ( 40°F) [RH = 53%]
Pressure (altimeter):30.32 inches Hg (1026.8 mb) [Sea level pressure: 1026.6 mb]
Winds:from the ENE (60 degrees) at 12 MPH (10 knots; 5.1 m/s)
Visibility:10 or more sm (16+ km)
Ceiling:at least 12,000 feet AGL
Clouds:sky clear below 12,000 feet AGL
QC Flag:automated observation with no human augmentation